createdAt,value
2018-02-15T00:02:26.049Z,47.20
2018-02-15T00:04:56.099Z,47.20
2018-02-15T00:07:25.234Z,47.10
2018-02-15T00:09:53.721Z,46.90
2018-02-15T00:12:21.592Z,46.90
2018-02-15T00:14:49.510Z,47.00
2018-02-15T00:17:24.171Z,46.90
2018-02-15T00:19:52.010Z,46.80
2018-02-15T00:22:19.865Z,46.80
2018-02-15T00:24:48.810Z,47.10
2018-02-15T00:27:17.393Z,47.40
2018-02-15T00:29:46.097Z,47.40
2018-02-15T00:32:14.882Z,47.30
2018-02-15T00:34:44.465Z,47.30
2018-02-15T00:37:12.292Z,47.10
2018-02-15T00:39:40.850Z,47.00
2018-02-15T00:42:09.264Z,47.20
2018-02-15T00:44:39.126Z,47.80
2018-02-15T00:47:10.097Z,47.40
2018-02-15T00:49:38.963Z,47.40
2018-02-15T00:52:07.548Z,48.00
2018-02-15T00:54:36.802Z,48.10
2018-02-15T00:57:04.664Z,48.10
2018-02-15T00:59:33.919Z,47.80
2018-02-15T01:02:02.518Z,47.30
2018-02-15T01:04:30.415Z,47.30
2018-02-15T01:06:58.387Z,47.20
2018-02-15T01:09:26.354Z,47.00
2018-02-15T01:11:54.181Z,47.10
2018-02-15T01:14:22.004Z,47.30
2018-02-15T01:16:49.806Z,47.30
2018-02-15T01:19:17.634Z,47.10
2018-02-15T01:21:45.535Z,46.90
2018-02-15T01:24:14.574Z,46.70
2018-02-15T01:26:44.634Z,47.40
2018-02-15T01:29:13.303Z,46.20
2018-02-15T01:31:41.318Z,46.20
2018-02-15T01:34:10.969Z,46.10
2018-02-15T01:36:39.422Z,46.00
2018-02-15T01:39:08.100Z,46.00
2018-02-15T01:41:36.031Z,45.90
2018-02-15T01:44:03.827Z,45.90
2018-02-15T01:46:31.671Z,46.10
2018-02-15T01:49:03.015Z,45.90
2018-02-15T01:51:32.126Z,45.90
2018-02-15T01:54:00.593Z,45.90
2018-02-15T01:56:28.394Z,45.70
2018-02-15T04:47:17.177Z,47.00
2018-02-15T04:49:46.495Z,46.70
2018-02-15T04:52:15.036Z,46.00
2018-02-15T04:54:45.516Z,46.00
2018-02-15T04:57:15.810Z,46.10
2018-02-15T04:59:46.131Z,46.10
2018-02-15T05:02:15.638Z,46.40
2018-02-15T05:04:43.735Z,46.70
2018-02-15T05:07:12.394Z,46.60
2018-02-15T05:09:41.886Z,46.60
2018-02-15T05:12:13.239Z,46.60
2018-02-15T05:14:41.089Z,46.60
2018-02-15T05:17:10.414Z,46.50
2018-02-15T05:19:39.237Z,46.30
2018-02-15T05:22:08.480Z,46.30
2018-02-15T05:24:37.012Z,46.30
2018-02-15T05:27:07.090Z,46.30
2018-02-15T05:29:36.226Z,46.30
2018-02-15T05:32:06.315Z,46.30
2018-02-15T05:34:35.439Z,46.30
2018-02-15T05:37:04.957Z,46.50
2018-02-15T05:39:34.712Z,46.50
2018-02-15T05:42:03.547Z,46.60
2018-02-15T05:44:35.512Z,46.80
2018-02-15T05:47:03.426Z,47.10
2018-02-15T05:49:31.888Z,47.00
2018-02-15T05:52:00.084Z,46.90
2018-02-15T05:54:29.726Z,46.80
2018-02-15T05:56:58.499Z,47.10
2018-02-15T05:59:26.299Z,47.10
2018-02-15T06:01:54.093Z,47.30
2018-02-15T06:04:25.096Z,47.40
2018-02-15T06:06:53.238Z,47.40
2018-02-15T06:09:21.947Z,47.40
2018-02-15T06:11:52.422Z,47.30
2018-02-15T06:14:22.037Z,47.30
2018-02-15T06:16:50.776Z,47.00
2018-02-15T06:19:19.036Z,46.80
2018-02-15T06:21:48.422Z,47.40
2018-02-15T06:24:18.059Z,47.40
2018-02-15T06:26:45.980Z,47.40
2018-02-15T06:29:14.702Z,47.50
2018-02-15T06:31:45.435Z,47.20
2018-02-15T06:34:14.957Z,47.20
2018-02-15T06:36:43.685Z,47.20
2018-02-15T06:39:12.373Z,47.40
2018-02-15T06:41:41.158Z,47.30
2018-02-15T06:44:10.358Z,47.30
2018-02-15T06:46:39.409Z,47.20
2018-02-15T06:49:07.610Z,47.20
2018-02-15T06:51:35.580Z,47.00
2018-02-15T06:54:03.418Z,47.10
2018-02-15T07:56:10.379Z,46.40
2018-02-15T07:58:39.849Z,45.90
2018-02-15T08:01:07.645Z,45.80
2018-02-15T08:03:37.149Z,45.20
2018-02-15T08:06:06.677Z,45.00
2018-02-15T08:08:36.591Z,45.00
2018-02-15T08:11:05.369Z,44.70
2018-02-15T08:13:33.183Z,44.50
2018-02-15T08:16:00.991Z,44.40
2018-02-15T08:18:31.221Z,44.60
2018-02-15T08:20:59.627Z,44.60
2018-02-15T08:23:28.557Z,44.70
2018-02-15T08:25:56.410Z,44.70
2018-02-15T08:28:24.206Z,44.90
2018-02-15T08:30:52.759Z,44.80
2018-02-15T08:33:20.635Z,44.80
2018-02-15T08:35:48.581Z,45.40
2018-02-15T08:38:16.606Z,44.70
2018-02-15T08:40:44.415Z,44.70
2018-02-15T08:43:13.222Z,44.80
2018-02-15T08:45:41.045Z,44.80
2018-02-15T08:48:08.825Z,44.70
2018-02-15T08:50:36.602Z,44.50
2018-02-15T08:53:05.088Z,44.10
2018-02-15T08:55:33.747Z,44.00
2018-02-15T08:58:01.568Z,44.20
2018-02-15T09:00:30.129Z,44.30
2018-02-15T09:02:57.930Z,44.30
2018-02-15T09:05:25.797Z,45.70
2018-02-15T09:07:53.589Z,45.20
2018-02-15T09:10:21.386Z,44.90
2018-02-15T09:12:49.176Z,44.50
2018-02-15T09:15:17.339Z,43.70
2018-02-15T09:17:47.801Z,43.90
2018-02-15T09:20:15.801Z,43.80
2018-02-15T09:22:43.592Z,43.40
2018-02-15T09:25:12.388Z,43.20
2018-02-15T09:27:40.942Z,43.00
2018-02-15T09:30:08.754Z,43.00
2018-02-15T09:32:36.566Z,42.90
2018-02-15T09:35:04.368Z,42.30
2018-02-15T09:37:32.481Z,42.30
2018-02-15T09:40:00.279Z,42.10
2018-02-15T09:42:28.959Z,41.90
2018-02-15T09:44:56.737Z,41.80
2018-02-15T09:47:24.555Z,42.10
2018-02-15T09:49:52.357Z,42.30
2018-02-15T09:52:20.173Z,41.90
2018-02-15T09:54:48.035Z,41.70
2018-02-15T09:57:15.862Z,42.10
2018-02-15T09:59:43.651Z,42.50
2018-02-15T10:02:12.295Z,43.50
2018-02-15T10:04:40.132Z,43.50
2018-02-15T10:07:07.963Z,43.90
2018-02-15T10:09:36.517Z,45.20
2018-02-15T10:12:04.405Z,45.20
2018-02-15T10:14:32.949Z,46.90
2018-02-15T10:17:00.734Z,46.90
2018-02-15T10:19:28.524Z,46.80
2018-02-15T10:21:57.069Z,48.40
2018-02-15T10:24:24.866Z,47.70
2018-02-15T10:26:53.411Z,48.80
2018-02-15T10:29:21.210Z,48.80
2018-02-15T10:31:49.808Z,49.90
2018-02-15T10:34:18.342Z,50.30
2018-02-15T10:36:46.158Z,50.30
2018-02-15T10:39:13.953Z,51.90
2018-02-15T10:41:41.736Z,52.40
2018-02-15T10:44:09.531Z,51.00
2018-02-15T10:46:38.082Z,52.90
2018-02-15T10:49:05.860Z,52.90
2018-02-15T10:51:33.662Z,53.70
2018-02-15T10:54:01.476Z,53.50
2018-02-15T10:56:29.305Z,53.70
2018-02-15T10:58:57.161Z,53.60
2018-02-15T11:01:30.548Z,53.40
2018-02-15T11:04:04.049Z,53.90
2018-02-15T11:06:32.622Z,54.20
2018-02-15T11:09:01.162Z,55.80
2018-02-15T11:11:28.937Z,55.90
2018-02-15T11:13:56.728Z,56.70
2018-02-15T11:16:25.325Z,57.50
2018-02-15T11:18:53.867Z,58.50
2018-02-15T11:21:21.638Z,58.50
2018-02-15T11:23:49.435Z,58.50
2018-02-15T11:26:17.250Z,58.40
2018-02-15T11:28:45.054Z,58.20
2018-02-15T11:31:13.598Z,58.90
2018-02-15T11:33:41.369Z,58.90
2018-02-15T11:36:09.161Z,58.90
2018-02-15T11:38:37.753Z,59.60
2018-02-15T11:41:06.393Z,59.80
2018-02-15T11:43:34.213Z,59.80
2018-02-15T11:46:02.786Z,61.20
2018-02-15T11:48:31.319Z,61.20
2018-02-15T11:50:59.127Z,61.20
2018-02-15T11:53:26.951Z,61.30
2018-02-15T11:55:54.758Z,61.00
2018-02-15T11:58:23.345Z,61.20
2018-02-15T12:00:51.905Z,61.10
2018-02-15T12:03:19.681Z,61.00
2018-02-15T12:05:48.232Z,61.20
2018-02-15T12:08:16.029Z,61.30
2018-02-15T12:10:44.590Z,61.80
2018-02-15T12:13:12.373Z,61.70
2018-02-15T12:15:40.919Z,62.10
2018-02-15T12:18:08.722Z,62.10
2018-02-15T12:20:37.289Z,61.90
2018-02-15T12:23:05.852Z,62.60
2018-02-15T12:25:33.641Z,61.90
2018-02-15T12:28:01.426Z,61.50
2018-02-15T12:30:29.967Z,61.10
2018-02-15T12:32:57.773Z,61.00
2018-02-15T12:35:26.331Z,60.60
2018-02-15T12:37:54.139Z,60.60
2018-02-15T12:40:21.917Z,60.90
2018-02-15T12:42:49.704Z,62.30
2018-02-15T12:45:17.525Z,61.60
2018-02-15T12:47:45.321Z,61.90
2018-02-15T12:50:13.123Z,61.40
2018-02-15T12:52:40.923Z,60.60
2018-02-15T12:55:08.729Z,61.10
2018-02-15T12:57:36.533Z,61.20
2018-02-15T13:00:05.171Z,60.80
2018-02-15T13:02:32.981Z,60.70
2018-02-15T13:05:01.532Z,60.20
2018-02-15T13:07:29.345Z,60.20
2018-02-15T13:09:57.916Z,59.80
2018-02-15T13:12:38.150Z,60.30
2018-02-15T13:15:17.788Z,60.20
2018-02-15T13:17:45.629Z,60.20
2018-02-15T13:20:20.218Z,59.10
2018-02-15T13:22:48.165Z,60.10
2018-02-15T13:25:18.402Z,60.20
2018-02-15T13:27:58.951Z,61.10
2018-02-15T13:30:27.507Z,61.00
2018-02-15T13:32:55.378Z,61.10
2018-02-15T13:35:23.954Z,61.20
2018-02-15T13:37:51.776Z,61.20
2018-02-15T13:40:19.645Z,61.20
2018-02-15T13:42:48.230Z,61.60
2018-02-15T13:45:16.859Z,61.60
2018-02-15T13:47:44.657Z,62.10
2018-02-15T13:50:13.227Z,61.00
2018-02-15T13:52:42.838Z,60.50
2018-02-15T13:55:12.297Z,60.60
2018-02-15T13:57:40.341Z,60.60
2018-02-15T14:00:08.136Z,60.50
2018-02-15T14:02:36.877Z,59.90
2018-02-15T14:05:06.181Z,57.90
2018-02-15T14:07:34.773Z,57.90
2018-02-15T14:10:03.083Z,55.60
2018-02-15T14:12:33.098Z,54.90
2018-02-15T14:15:01.765Z,54.30
2018-02-15T14:17:30.409Z,54.90
2018-02-15T14:20:00.081Z,54.30
2018-02-15T14:22:29.885Z,54.30
2018-02-15T14:24:57.650Z,54.60
2018-02-15T14:27:26.482Z,54.60
2018-02-15T14:29:54.614Z,54.70
2018-02-15T14:32:22.845Z,55.20
2018-02-15T14:34:52.257Z,56.20
2018-02-15T14:37:20.129Z,57.10
2018-02-15T14:39:48.890Z,57.40
2018-02-15T14:42:17.153Z,58.30
2018-02-15T14:44:46.526Z,56.70
2018-02-15T14:47:14.332Z,56.20
2018-02-15T14:49:42.926Z,57.80
2018-02-15T14:52:11.496Z,57.90
2018-02-15T14:55:20.822Z,57.40
2018-02-15T15:01:10.629Z,55.90
2018-02-15T15:09:54.674Z,55.90
2018-02-15T15:32:01.814Z,53.60
2018-02-15T15:34:29.652Z,54.60
2018-02-15T15:36:57.434Z,55.80
2018-02-15T15:39:25.227Z,56.20
2018-02-15T15:41:53.761Z,56.20
2018-02-15T15:44:21.593Z,56.20
2018-02-15T15:46:49.383Z,56.30
2018-02-15T15:49:17.148Z,56.00
2018-02-15T15:51:44.926Z,55.30
2018-02-15T15:54:12.715Z,54.90
2018-02-15T15:56:40.496Z,54.90
2018-02-15T15:59:09.065Z,57.50
2018-02-15T16:01:37.685Z,59.70
2018-02-15T16:04:05.475Z,59.70
2018-02-15T16:06:33.271Z,61.00
2018-02-15T16:09:01.819Z,61.70
2018-02-15T16:11:29.629Z,61.70
2018-02-15T16:13:58.229Z,61.40
2018-02-15T16:16:25.997Z,61.40
2018-02-15T16:18:53.781Z,61.00
2018-02-15T16:21:21.568Z,61.40
2018-02-15T16:23:49.334Z,61.80
2018-02-15T16:26:17.133Z,62.00
2018-02-15T16:28:45.681Z,62.00
2018-02-15T16:31:13.488Z,62.00
2018-02-15T16:33:42.025Z,61.80
2018-02-15T16:36:09.823Z,61.70
2018-02-15T16:38:38.364Z,62.50
2018-02-15T16:41:06.157Z,62.50
2018-02-15T16:43:34.716Z,63.80
2018-02-15T16:46:02.524Z,63.80
2018-02-15T16:48:31.055Z,63.70
2018-02-15T16:50:58.828Z,63.70
2018-02-15T16:53:26.594Z,62.60
2018-02-15T16:55:54.362Z,62.30
2018-02-15T16:58:22.126Z,62.50
2018-02-15T17:00:49.901Z,62.30
2018-02-15T17:03:17.687Z,62.70
2018-02-15T17:05:46.249Z,60.80
2018-02-15T17:08:14.029Z,60.80
2018-02-15T17:10:41.832Z,59.80
2018-02-15T17:13:09.708Z,59.50
2018-02-15T17:15:37.491Z,59.40
2018-02-15T17:18:05.260Z,59.40
2018-02-15T17:20:33.043Z,59.80
2018-02-15T17:23:01.602Z,60.50
2018-02-15T17:25:29.410Z,60.50
2018-02-15T17:27:57.957Z,61.00
2018-02-15T17:30:25.749Z,61.00
2018-02-15T17:32:54.297Z,61.10
2018-02-15T17:35:22.135Z,61.10
2018-02-15T17:37:49.937Z,60.80
2018-02-15T17:40:17.724Z,60.70
2018-02-15T17:42:48.008Z,61.50
2018-02-15T17:45:15.813Z,61.40
2018-02-15T17:47:44.418Z,61.60
2018-02-15T17:50:12.193Z,61.50
2018-02-15T17:52:39.984Z,61.70
2018-02-15T17:55:07.799Z,61.60
2018-02-15T17:57:36.386Z,62.20
2018-02-15T18:00:05.006Z,62.30
2018-02-15T18:02:33.615Z,62.30
2018-02-15T18:05:01.406Z,62.30
2018-02-15T18:07:29.950Z,62.10
2018-02-15T18:09:57.814Z,62.20
2018-02-15T18:12:25.615Z,62.10
2018-02-15T18:14:53.455Z,62.10
2018-02-15T18:17:21.258Z,62.00
2018-02-15T18:19:49.841Z,62.00
2018-02-15T18:22:18.420Z,62.30
2018-02-15T18:24:46.970Z,62.60
2018-02-15T18:27:14.886Z,62.60
2018-02-15T18:29:43.281Z,62.80
2018-02-15T18:32:11.581Z,63.00
2018-02-15T18:34:39.402Z,63.00
2018-02-15T18:37:07.266Z,63.20
2018-02-15T18:39:35.062Z,63.40
2018-02-15T18:42:02.843Z,63.10
2018-02-15T18:44:30.654Z,62.80
2018-02-15T18:46:59.209Z,62.10
2018-02-15T18:49:27.006Z,62.10
2018-02-15T18:51:54.786Z,61.80
2018-02-15T18:54:22.579Z,61.60
2018-02-15T18:56:50.358Z,61.40
2018-02-15T18:59:19.002Z,61.50
2018-02-15T19:01:46.794Z,61.50
2018-02-15T19:04:14.574Z,61.50
2018-02-15T19:06:42.354Z,61.50
2018-02-15T19:09:11.127Z,61.40
2018-02-15T19:11:38.906Z,61.40
2018-02-15T19:14:06.713Z,61.30
2018-02-15T19:16:34.504Z,61.20
2018-02-15T19:19:02.781Z,61.30
2018-02-15T19:21:30.606Z,61.30
2018-02-15T19:24:00.011Z,61.10
2018-02-15T19:26:27.817Z,60.90
2018-02-15T19:28:55.665Z,61.10
2018-02-15T19:31:23.454Z,61.10
2018-02-15T19:33:51.262Z,61.00
2018-02-15T19:36:19.037Z,60.90
2018-02-15T19:38:46.877Z,60.90
2018-02-15T19:41:15.462Z,60.70
2018-02-15T19:43:44.015Z,60.50
2018-02-15T19:46:11.857Z,60.50
2018-02-15T19:48:39.650Z,60.30
2018-02-15T19:51:07.597Z,60.30
2018-02-15T19:53:35.397Z,60.30
2018-02-15T19:56:03.198Z,60.40
2018-02-15T19:58:31.241Z,60.30
2018-02-15T20:01:01.835Z,60.80
2018-02-15T20:03:29.630Z,60.20
2018-02-15T20:05:58.606Z,60.20
2018-02-15T20:08:26.770Z,60.20
2018-02-15T20:10:55.068Z,60.10
2018-02-15T20:13:23.709Z,60.20
2018-02-15T20:15:51.557Z,60.20
2018-02-15T20:18:19.365Z,60.20
2018-02-15T20:20:47.185Z,60.30
2018-02-15T20:23:15.008Z,60.50
2018-02-15T20:25:42.854Z,60.60
2018-02-15T20:28:15.718Z,60.70
2018-02-15T20:30:43.559Z,60.80
2018-02-15T20:33:11.366Z,60.80
2018-02-15T20:35:39.954Z,60.60
2018-02-15T20:38:13.314Z,60.30
2018-02-15T20:40:41.169Z,60.40
2018-02-15T20:43:09.198Z,60.40
2018-02-15T20:45:37.048Z,60.50
2018-02-15T20:48:05.952Z,60.50
2018-02-15T20:50:39.562Z,60.40
2018-02-15T20:53:13.684Z,59.90
2018-02-15T20:55:46.796Z,59.80
2018-02-15T20:58:14.881Z,59.80
2018-02-15T21:00:43.744Z,59.80
2018-02-15T21:03:13.624Z,59.80
2018-02-15T21:05:41.586Z,59.70
2018-02-15T21:08:09.531Z,60.00
2018-02-15T21:10:37.376Z,60.10
2018-02-15T21:13:07.346Z,60.10
2018-02-15T21:15:35.194Z,60.10
2018-02-15T21:18:03.870Z,60.30
2018-02-15T21:20:32.367Z,60.10
2018-02-15T21:23:00.231Z,60.10
2018-02-15T21:25:28.224Z,60.00
2018-02-15T21:27:56.031Z,60.00
2018-02-15T21:30:23.862Z,59.90
2018-02-15T21:32:52.465Z,59.90
2018-02-15T21:35:20.381Z,59.90
2018-02-15T21:37:48.770Z,59.70
2018-02-15T21:40:17.141Z,59.70
2018-02-15T21:42:44.975Z,59.80
2018-02-15T21:45:12.753Z,59.90
2018-02-15T21:47:42.078Z,60.00
2018-02-15T21:50:09.870Z,60.00
2018-02-15T21:52:39.348Z,59.90
2018-02-15T21:55:08.158Z,59.80
2018-02-15T21:57:36.788Z,59.70
2018-02-15T22:00:04.822Z,59.70
2018-02-15T22:02:32.625Z,59.90
2018-02-15T22:05:00.406Z,60.10
2018-02-15T22:07:28.196Z,60.00
2018-02-15T22:09:56.023Z,60.00
2018-02-15T22:12:24.245Z,59.70
2018-02-15T22:14:53.022Z,59.50
2018-02-15T22:17:22.138Z,59.70
2018-02-15T22:19:51.508Z,59.70
2018-02-15T22:22:19.298Z,59.70
2018-02-15T22:24:49.563Z,59.70
2018-02-15T22:27:17.339Z,59.70
2018-02-15T22:29:45.190Z,59.60
2018-02-15T22:32:14.341Z,59.40
2018-02-15T22:34:42.889Z,59.40
2018-02-15T22:37:12.537Z,59.40
2018-02-15T22:39:41.094Z,59.30
2018-02-15T22:42:09.826Z,59.30
2018-02-15T22:44:37.627Z,59.40
2018-02-15T22:47:05.438Z,59.40
2018-02-15T22:49:33.981Z,59.60
2018-02-15T22:52:01.826Z,59.60
2018-02-15T22:54:29.642Z,59.80
2018-02-15T22:56:58.187Z,60.40
2018-02-15T22:59:25.961Z,60.40
2018-02-15T23:01:53.794Z,60.60
2018-02-15T23:04:21.579Z,61.00
2018-02-15T23:06:49.366Z,61.20
2018-02-15T23:09:17.438Z,61.30
2018-02-15T23:11:45.854Z,61.30
2018-02-15T23:14:15.506Z,61.40
2018-02-15T23:16:43.857Z,61.50
2018-02-15T23:19:11.629Z,61.40
2018-02-15T23:21:39.490Z,61.90
2018-02-15T23:24:08.162Z,61.10
2018-02-15T23:26:35.953Z,61.00
2018-02-15T23:29:03.753Z,60.90
2018-02-15T23:31:31.644Z,60.70
2018-02-15T23:33:59.506Z,60.50
2018-02-15T23:36:27.519Z,60.40
2018-02-15T23:38:57.118Z,60.30
2018-02-15T23:41:25.227Z,60.40
2018-02-15T23:43:53.022Z,60.10
2018-02-15T23:46:23.171Z,59.60
2018-02-15T23:48:50.946Z,59.60
2018-02-15T23:51:20.125Z,59.50
2018-02-15T23:53:48.046Z,59.50
2018-02-15T23:56:15.984Z,59.30
2018-02-15T23:58:44.442Z,59.10
